Time;durP1;ratioP1;P1;durP2;ratioP2;P2;SDS_P1;SDS_P2;PMS_P1;PMS_P2;Temp;Humidity;BMP_temperature;BMP_pressure;BME280_temperature;BME280_humidity;BME280_pressure;Samples;Min_cycle;Max_cycle;Signal;HPM_P1;HPM_P2
2024/01/21 00:00:03;;;;;;;14.25;10.13;;;;;;;;;;5008932;28;20045;-81
2024/01/21 00:02:29;;;;;;;17.75;11.18;;;;;;;;;;4998019;28;20220;-82
2024/01/21 00:04:56;;;;;;;17.50;10.55;;;;;;;;;;4972104;28;20749;-82
2024/01/21 00:07:22;;;;;;;15.73;10.18;;;;;;;;;;4987853;28;20046;-82
2024/01/21 00:09:48;;;;;;;16.45;10.90;;;;;;;;;;4972836;28;20045;-82
2024/01/21 00:12:14;;;;;;;14.60;9.77;;;;;;;;;;4987970;28;20053;-82
2024/01/21 00:14:40;;;;;;;13.95;9.50;;;;;;;;;;4990301;28;20053;-82
2024/01/21 00:17:07;;;;;;;15.57;9.43;;;;;;;;;;4990175;28;20042;-83
2024/01/21 00:19:33;;;;;;;13.55;9.30;;;;;;;;;;4988201;28;20050;-82
2024/01/21 00:21:59;;;;;;;18.17;10.45;;;;;;;;;;4986866;28;20049;-82
2024/01/21 00:24:25;;;;;;;15.52;9.70;;;;;;;;;;4994716;28;20050;-82
2024/01/21 00:26:51;;;;;;;15.25;8.85;;;;;;;;;;5001502;28;20125;-82
2024/01/21 00:29:18;;;;;;;14.02;9.30;;;;;;;;;;4979058;28;20139;-82
2024/01/21 00:31:44;;;;;;;15.57;9.57;;;;;;;;;;4971354;28;20125;-82
2024/01/21 00:34:11;;;;;;;14.02;9.48;;;;;;;;;;4979644;28;20057;-82
2024/01/21 00:36:37;;;;;;;16.33;10.25;;;;;;;;;;4987302;28;20104;-82
2024/01/21 00:39:03;;;;;;;16.98;10.88;;;;;;;;;;4986385;28;20080;-82
2024/01/21 00:41:29;;;;;;;14.50;9.10;;;;;;;;;;4991805;28;20411;-82
2024/01/21 00:43:55;;;;;;;16.20;10.25;;;;;;;;;;4988942;28;20054;-82
2024/01/21 00:46:20;;;;;;;14.95;9.60;;;;;;;;;;4989912;28;20042;-82
2024/01/21 00:48:49;;;;;;;14.60;9.30;;;;;;;;;;5001787;28;20042;-82
2024/01/21 00:51:15;;;;;;;12.93;8.95;;;;;;;;;;4982886;28;20042;-82
2024/01/21 00:53:41;;;;;;;14.35;8.68;;;;;;;;;;4994914;28;20121;-82
2024/01/21 00:56:07;;;;;;;15.60;9.65;;;;;;;;;;4994414;28;20181;-82
2024/01/21 00:58:33;;;;;;;14.48;9.45;;;;;;;;;;4978401;28;20208;-82
2024/01/21 01:01:02;;;;;;;15.40;8.93;;;;;;;;;;4995067;28;20172;-82
2024/01/21 01:03:28;;;;;;;13.40;9.02;;;;;;;;;;4996094;28;20057;-82
2024/01/21 01:05:56;;;;;;;15.23;8.55;;;;;;;;;;5036098;28;20360;-82
2024/01/21 01:08:22;;;;;;;15.77;8.98;;;;;;;;;;5034660;28;20056;-82
2024/01/21 01:10:51;;;;;;;13.13;8.05;;;;;;;;;;5035823;28;20052;-82
2024/01/21 01:13:17;;;;;;;15.07;8.98;;;;;;;;;;5034305;28;20116;-82
2024/01/21 01:15:44;;;;;;;15.60;8.82;;;;;;;;;;5002113;28;20115;-82
2024/01/21 01:18:10;;;;;;;14.93;8.82;;;;;;;;;;5016155;28;20097;-82
2024/01/21 01:20:36;;;;;;;13.32;9.02;;;;;;;;;;5044758;28;20084;-82
2024/01/21 01:23:02;;;;;;;14.82;8.20;;;;;;;;;;5039909;28;20081;-82
2024/01/21 01:25:29;;;;;;;15.93;8.65;;;;;;;;;;5017179;28;20041;-82
2024/01/21 01:27:55;;;;;;;12.77;8.50;;;;;;;;;;5034771;28;20061;-82
2024/01/21 01:30:21;;;;;;;13.15;8.02;;;;;;;;;;5000933;28;20053;-82
2024/01/21 01:32:47;;;;;;;13.65;8.18;;;;;;;;;;5000895;28;20091;-82
2024/01/21 01:35:13;;;;;;;14.48;7.90;;;;;;;;;;5034868;28;20045;-82
2024/01/21 01:37:39;;;;;;;12.13;8.02;;;;;;;;;;5029596;28;20128;-82
2024/01/21 01:40:09;;;;;;;12.05;7.40;;;;;;;;;;5034558;28;20140;-82
2024/01/21 01:42:35;;;;;;;11.73;7.50;;;;;;;;;;5035568;28;20049;-82
2024/01/21 01:45:01;;;;;;;11.10;7.35;;;;;;;;;;5015898;28;20126;-82
2024/01/21 01:47:27;;;;;;;15.57;7.68;;;;;;;;;;5035228;28;20041;-82
2024/01/21 01:49:55;;;;;;;10.65;6.60;;;;;;;;;;5033259;28;20049;-82
2024/01/21 01:52:21;;;;;;;12.30;7.15;;;;;;;;;;5021998;28;20098;-82
2024/01/21 01:54:48;;;;;;;9.68;6.65;;;;;;;;;;5035344;28;20533;-82
2024/01/21 01:57:15;;;;;;;12.38;7.30;;;;;;;;;;5034459;28;20048;-82
2024/01/21 01:59:41;;;;;;;11.68;7.03;;;;;;;;;;4997658;28;20057;-82
2024/01/21 02:02:08;;;;;;;11.23;6.88;;;;;;;;;;5005350;28;20045;-82
2024/01/21 02:04:34;;;;;;;11.13;6.32;;;;;;;;;;5024842;28;20408;-82
2024/01/21 02:07:00;;;;;;;9.65;6.20;;;;;;;;;;5037000;28;20042;-81
2024/01/21 02:09:26;;;;;;;9.38;5.63;;;;;;;;;;5030721;28;20056;-82
2024/01/21 02:11:52;;;;;;;11.18;5.75;;;;;;;;;;4998377;28;20048;-82
2024/01/21 02:14:18;;;;;;;9.23;5.25;;;;;;;;;;5027393;28;20045;-82
2024/01/21 02:16:45;;;;;;;11.57;6.35;;;;;;;;;;5033863;28;20036;-82
2024/01/21 02:19:15;;;;;;;11.23;5.78;;;;;;;;;;5040787;28;20460;-82
2024/01/21 02:21:41;;;;;;;12.68;5.72;;;;;;;;;;5013975;28;20057;-82
2024/01/21 02:24:07;;;;;;;10.63;5.22;;;;;;;;;;5012055;28;20049;-82
2024/01/21 02:26:33;;;;;;;8.43;4.68;;;;;;;;;;5030118;28;20422;-82
2024/01/21 02:28:59;;;;;;;10.35;5.40;;;;;;;;;;5015843;28;20072;-82
2024/01/21 02:31:25;;;;;;;8.95;5.07;;;;;;;;;;5025498;28;20139;-82
2024/01/21 02:33:52;;;;;;;7.65;4.45;;;;;;;;;;4998654;28;20045;-82
2024/01/21 02:36:18;;;;;;;8.40;5.55;;;;;;;;;;5030899;28;20041;-82
2024/01/21 02:38:44;;;;;;;8.07;4.75;;;;;;;;;;4994656;28;20051;-82
2024/01/21 02:41:10;;;;;;;8.05;4.55;;;;;;;;;;5012405;28;20042;-82
2024/01/21 02:43:36;;;;;;;6.72;3.97;;;;;;;;;;5014025;28;20072;-82
2024/01/21 02:46:02;;;;;;;7.55;4.30;;;;;;;;;;5001717;28;20045;-82
2024/01/21 02:48:28;;;;;;;7.97;4.35;;;;;;;;;;5029621;28;20422;-82
2024/01/21 02:50:54;;;;;;;7.05;4.22;;;;;;;;;;5000174;28;20053;-82
2024/01/21 02:53:20;;;;;;;5.97;4.00;;;;;;;;;;5019008;28;20038;-82
2024/01/21 02:55:46;;;;;;;9.07;4.47;;;;;;;;;;5029762;28;20052;-82
2024/01/21 02:58:12;;;;;;;5.88;4.32;;;;;;;;;;5028608;28;20124;-81
2024/01/21 03:00:38;;;;;;;5.57;3.83;;;;;;;;;;5029286;28;20044;-82
2024/01/21 03:03:04;;;;;;;7.68;4.07;;;;;;;;;;5030024;28;20055;-82
2024/01/21 03:05:30;;;;;;;6.15;3.63;;;;;;;;;;5020308;28;20865;-82
2024/01/21 03:07:56;;;;;;;5.43;3.72;;;;;;;;;;4994963;28;20042;-82
2024/01/21 03:10:22;;;;;;;6.10;3.50;;;;;;;;;;5010700;28;20049;-82
2024/01/21 03:12:48;;;;;;;5.78;3.60;;;;;;;;;;5010791;28;20133;-83
2024/01/21 03:15:14;;;;;;;4.88;3.53;;;;;;;;;;5028204;28;20128;-82
2024/01/21 03:17:40;;;;;;;5.63;3.42;;;;;;;;;;4994305;28;20095;-82
2024/01/21 03:20:07;;;;;;;5.78;3.92;;;;;;;;;;5026698;28;20124;-82
2024/01/21 03:22:33;;;;;;;5.93;3.15;;;;;;;;;;4995405;28;20054;-83
2024/01/21 03:24:59;;;;;;;4.28;3.17;;;;;;;;;;4960157;28;20068;-82
2024/01/21 03:27:25;;;;;;;4.93;3.28;;;;;;;;;;5002101;28;20048;-82
2024/01/21 03:29:51;;;;;;;4.78;3.33;;;;;;;;;;5010832;28;20049;-82
2024/01/21 03:32:17;;;;;;;4.55;3.00;;;;;;;;;;5028415;28;20072;-82
2024/01/21 03:34:43;;;;;;;4.63;2.90;;;;;;;;;;5027630;28;20049;-83
2024/01/21 03:37:09;;;;;;;4.68;3.42;;;;;;;;;;5028408;28;20038;-82
2024/01/21 03:39:35;;;;;;;7.47;3.60;;;;;;;;;;4994701;28;20099;-83
2024/01/21 03:42:02;;;;;;;6.43;2.97;;;;;;;;;;5010479;28;20049;-82
2024/01/21 03:44:28;;;;;;;3.55;2.78;;;;;;;;;;5028830;28;20053;-83
2024/01/21 03:46:54;;;;;;;6.18;2.60;;;;;;;;;;5027400;28;20045;-82
2024/01/21 03:49:20;;;;;;;4.07;2.35;;;;;;;;;;5033928;28;20033;-82
2024/01/21 03:51:48;;;;;;;3.38;2.60;;;;;;;;;;5028926;28;20092;-82
2024/01/21 03:54:14;;;;;;;4.57;3.08;;;;;;;;;;4996508;28;20332;-82
2024/01/21 03:56:40;;;;;;;4.40;2.53;;;;;;;;;;5030427;28;20044;-83
2024/01/21 03:59:07;;;;;;;2.45;2.20;;;;;;;;;;5010575;28;20128;-82
2024/01/21 04:01:33;;;;;;;3.55;2.60;;;;;;;;;;5011544;28;20049;-82
2024/01/21 04:03:59;;;;;;;5.32;2.58;;;;;;;;;;5028874;28;20523;-82
2024/01/21 04:06:25;;;;;;;3.38;2.42;;;;;;;;;;5013293;28;20053;-82
2024/01/21 04:08:51;;;;;;;3.25;1.92;;;;;;;;;;5026458;28;20049;-83
2024/01/21 04:11:17;;;;;;;2.83;2.30;;;;;;;;;;5015162;28;20046;-82
2024/01/21 04:13:43;;;;;;;4.60;2.25;;;;;;;;;;5027793;28;20049;-82
2024/01/21 04:16:09;;;;;;;3.05;2.10;;;;;;;;;;5028306;28;20045;-83
2024/01/21 04:18:35;;;;;;;2.97;2.05;;;;;;;;;;5035805;28;20040;-82
2024/01/21 04:21:01;;;;;;;3.35;2.55;;;;;;;;;;5027514;28;20106;-82
2024/01/21 04:23:28;;;;;;;3.28;2.40;;;;;;;;;;5009949;28;20045;-83
2024/01/21 04:25:54;;;;;;;3.63;2.40;;;;;;;;;;5027232;28;20042;-83
2024/01/21 04:28:20;;;;;;;3.40;2.33;;;;;;;;;;5027244;28;20040;-82
2024/01/21 04:30:46;;;;;;;3.35;2.33;;;;;;;;;;5020145;28;20042;-82
2024/01/21 04:33:12;;;;;;;3.20;2.08;;;;;;;;;;5019191;28;20072;-83
2024/01/21 04:35:38;;;;;;;3.55;2.40;;;;;;;;;;5027694;28;20092;-82
2024/01/21 04:38:04;;;;;;;5.38;2.58;;;;;;;;;;4993628;28;20049;-82
2024/01/21 04:40:30;;;;;;;8.18;2.60;;;;;;;;;;5010309;28;20407;-83
2024/01/21 04:42:56;;;;;;;3.80;2.10;;;;;;;;;;4993030;28;20053;-82
2024/01/21 04:45:23;;;;;;;3.88;2.15;;;;;;;;;;5009765;28;20056;-83
2024/01/21 04:47:49;;;;;;;2.70;2.13;;;;;;;;;;5010043;28;20125;-82
2024/01/21 04:50:15;;;;;;;4.53;2.28;;;;;;;;;;5009144;28;20058;-83
2024/01/21 04:52:41;;;;;;;4.20;2.40;;;;;;;;;;4997066;28;20057;-83
2024/01/21 04:55:07;;;;;;;3.45;2.25;;;;;;;;;;5026376;28;20499;-83
2024/01/21 04:57:33;;;;;;;3.67;2.03;;;;;;;;;;5027164;28;20077;-82
2024/01/21 04:59:59;;;;;;;4.47;2.10;;;;;;;;;;5026359;28;20143;-83
2024/01/21 05:02:25;;;;;;;2.58;1.95;;;;;;;;;;4986014;28;20066;-83
2024/01/21 05:04:51;;;;;;;2.67;2.20;;;;;;;;;;5007422;28;20503;-83
2024/01/21 05:07:17;;;;;;;3.78;2.47;;;;;;;;;;5026606;28;20625;-83
2024/01/21 05:09:43;;;;;;;3.65;1.98;;;;;;;;;;5008994;28;20096;-83
2024/01/21 05:12:09;;;;;;;4.47;2.50;;;;;;;;;;5008994;28;20049;-83
2024/01/21 05:14:36;;;;;;;3.75;2.40;;;;;;;;;;5026956;28;20127;-83
2024/01/21 05:17:03;;;;;;;3.15;2.13;;;;;;;;;;5003857;28;20048;-82
2024/01/21 05:19:31;;;;;;;3.10;2.50;;;;;;;;;;5027342;28;20060;-82
2024/01/21 05:21:57;;;;;;;3.97;2.25;;;;;;;;;;5036539;28;20100;-82
2024/01/21 05:24:23;;;;;;;4.38;3.25;;;;;;;;;;5013664;28;20041;-82
2024/01/21 05:26:49;;;;;;;6.47;2.70;;;;;;;;;;5026444;28;20046;-83
2024/01/21 05:29:16;;;;;;;3.60;2.47;;;;;;;;;;5027004;28;20071;-83
2024/01/21 05:31:42;;;;;;;7.90;2.95;;;;;;;;;;5027730;28;22085;-82
2024/01/21 05:34:08;;;;;;;6.38;2.80;;;;;;;;;;5013613;28;20038;-83
2024/01/21 05:36:34;;;;;;;4.13;2.55;;;;;;;;;;4995869;28;20054;-82
2024/01/21 05:39:00;;;;;;;4.57;2.38;;;;;;;;;;5030772;28;20049;-82
2024/01/21 05:41:28;;;;;;;3.92;2.80;;;;;;;;;;5011875;28;20057;-83
2024/01/21 05:43:54;;;;;;;5.03;3.15;;;;;;;;;;5030309;28;20107;-83
2024/01/21 05:46:21;;;;;;;4.00;2.58;;;;;;;;;;5029407;28;20411;-82
2024/01/21 05:48:47;;;;;;;4.25;2.67;;;;;;;;;;5030649;28;20099;-82
2024/01/21 05:51:13;;;;;;;3.90;3.05;;;;;;;;;;4990050;28;20435;-82
2024/01/21 05:53:41;;;;;;;5.63;3.25;;;;;;;;;;5021574;28;20045;-82
2024/01/21 05:56:07;;;;;;;4.45;3.25;;;;;;;;;;5012916;28;20057;-83
2024/01/21 05:58:33;;;;;;;4.38;3.10;;;;;;;;;;5012362;28;20064;-83
2024/01/21 06:00:59;;;;;;;4.95;3.15;;;;;;;;;;4997095;28;20155;-82
2024/01/21 06:03:25;;;;;;;4.95;3.15;;;;;;;;;;5030005;28;20126;-82
2024/01/21 06:05:51;;;;;;;5.32;2.90;;;;;;;;;;5030041;28;20054;-83
2024/01/21 06:08:18;;;;;;;5.00;3.35;;;;;;;;;;5029243;28;20038;-82
2024/01/21 06:10:44;;;;;;;3.90;2.92;;;;;;;;;;4997655;28;20077;-83
2024/01/21 06:13:10;;;;;;;6.45;3.67;;;;;;;;;;5029222;28;20080;-82
2024/01/21 06:15:38;;;;;;;4.90;3.40;;;;;;;;;;5030182;28;20109;-82
2024/01/21 06:18:04;;;;;;;6.80;3.90;;;;;;;;;;5012515;28;20462;-82
2024/01/21 06:20:30;;;;;;;8.68;4.25;;;;;;;;;;5029944;28;20199;-82
2024/01/21 06:22:56;;;;;;;6.53;3.95;;;;;;;;;;5031108;28;20144;-82
2024/01/21 06:25:22;;;;;;;6.28;3.70;;;;;;;;;;5028976;28;20535;-82
2024/01/21 06:27:49;;;;;;;6.40;4.00;;;;;;;;;;5032271;28;20420;-82
2024/01/21 06:30:16;;;;;;;7.00;4.35;;;;;;;;;;5012292;28;20115;-83
2024/01/21 06:32:42;;;;;;;6.95;4.22;;;;;;;;;;5030428;28;20094;-82
2024/01/21 06:35:09;;;;;;;6.40;4.22;;;;;;;;;;5029046;28;20045;-83
2024/01/21 06:37:35;;;;;;;5.80;4.20;;;;;;;;;;5011986;28;20420;-83
2024/01/21 06:40:04;;;;;;;6.18;4.63;;;;;;;;;;5023602;28;20060;-83
2024/01/21 06:42:32;;;;;;;6.72;4.60;;;;;;;;;;5010972;28;20080;-83
2024/01/21 06:44:58;;;;;;;6.35;4.22;;;;;;;;;;5028383;28;20120;-84
2024/01/21 06:47:24;;;;;;;8.05;4.75;;;;;;;;;;5008115;28;20050;-83
2024/01/21 06:49:50;;;;;;;11.35;5.35;;;;;;;;;;5019576;28;20132;-82
2024/01/21 06:52:16;;;;;;;6.93;4.32;;;;;;;;;;5002511;28;20520;-82
2024/01/21 06:54:42;;;;;;;6.57;4.65;;;;;;;;;;5028675;28;20071;-82
2024/01/21 06:57:08;;;;;;;5.72;3.95;;;;;;;;;;5011751;28;20355;-83
2024/01/21 06:59:34;;;;;;;7.25;4.70;;;;;;;;;;5015167;28;20057;-83
2024/01/21 07:02:00;;;;;;;6.35;4.47;;;;;;;;;;5029173;28;20052;-82
2024/01/21 07:04:26;;;;;;;7.38;4.90;;;;;;;;;;5038667;28;20057;-82
2024/01/21 07:06:53;;;;;;;6.63;4.68;;;;;;;;;;5046190;28;20812;-82
2024/01/21 07:09:19;;;;;;;7.63;5.55;;;;;;;;;;5008560;28;20064;-82
2024/01/21 07:11:46;;;;;;;7.93;5.75;;;;;;;;;;5031079;28;21896;-82
2024/01/21 07:14:12;;;;;;;9.30;5.30;;;;;;;;;;5030181;28;20052;-82
2024/01/21 07:16:38;;;;;;;7.88;5.35;;;;;;;;;;5031290;28;20113;-83
2024/01/21 07:19:04;;;;;;;7.57;5.03;;;;;;;;;;5026723;28;20475;-83
2024/01/21 07:21:30;;;;;;;8.55;5.35;;;;;;;;;;5011353;28;20404;-83
2024/01/21 07:23:56;;;;;;;8.52;5.40;;;;;;;;;;5008179;28;20110;-83
2024/01/21 07:26:23;;;;;;;9.55;5.35;;;;;;;;;;5010948;28;20198;-82
2024/01/21 07:28:49;;;;;;;8.00;5.35;;;;;;;;;;5032218;28;20171;-83
2024/01/21 07:31:15;;;;;;;6.75;5.40;;;;;;;;;;5035968;28;20049;-83
2024/01/21 07:33:42;;;;;;;7.95;5.18;;;;;;;;;;5027335;28;20161;-80
2024/01/21 07:36:08;;;;;;;8.43;5.15;;;;;;;;;;5028791;28;20068;-80
2024/01/21 07:38:34;;;;;;;7.47;5.68;;;;;;;;;;5028645;28;20384;-80
2024/01/21 07:41:00;;;;;;;8.65;5.90;;;;;;;;;;5028083;28;20048;-80
2024/01/21 07:43:27;;;;;;;8.85;6.10;;;;;;;;;;5011180;28;20125;-79
2024/01/21 07:45:53;;;;;;;6.97;5.03;;;;;;;;;;5033179;28;20052;-79
2024/01/21 07:48:19;;;;;;;9.15;5.68;;;;;;;;;;5025923;28;20406;-82
2024/01/21 07:50:45;;;;;;;7.18;5.07;;;;;;;;;;5028217;28;20582;-79
2024/01/21 07:53:12;;;;;;;7.40;5.75;;;;;;;;;;5010941;28;20049;-80
2024/01/21 07:55:39;;;;;;;8.05;5.18;;;;;;;;;;5036309;28;21279;-81
2024/01/21 07:58:05;;;;;;;9.60;5.60;;;;;;;;;;5025192;28;20334;-82
2024/01/21 08:00:31;;;;;;;7.95;6.28;;;;;;;;;;5028453;28;20541;-82
2024/01/21 08:02:57;;;;;;;12.82;7.68;;;;;;;;;;5010388;28;20147;-82
2024/01/21 08:05:23;;;;;;;12.88;7.97;;;;;;;;;;5027563;28;20046;-81
2024/01/21 08:07:49;;;;;;;10.07;6.68;;;;;;;;;;5027347;28;20182;-81
2024/01/21 08:10:15;;;;;;;11.77;7.88;;;;;;;;;;5027675;28;20570;-81
2024/01/21 08:12:41;;;;;;;13.30;7.22;;;;;;;;;;5027166;28;20044;-82
2024/01/21 08:15:07;;;;;;;9.00;6.63;;;;;;;;;;5047867;28;20037;-82
2024/01/21 08:17:33;;;;;;;8.55;6.45;;;;;;;;;;5046059;28;20068;-82
2024/01/21 08:19:59;;;;;;;10.00;6.45;;;;;;;;;;5047626;28;20108;-81
2024/01/21 08:22:25;;;;;;;9.90;7.32;;;;;;;;;;5031506;28;20067;-82
2024/01/21 08:24:53;;;;;;;11.48;7.18;;;;;;;;;;5027846;28;20041;-81
2024/01/21 08:27:20;;;;;;;8.43;6.07;;;;;;;;;;5027958;28;20060;-82
2024/01/21 08:29:45;;;;;;;7.90;5.50;;;;;;;;;;5028298;28;20053;-82
2024/01/21 08:32:11;;;;;;;9.95;6.72;;;;;;;;;;5027151;28;20069;-82
2024/01/21 08:34:38;;;;;;;9.27;5.97;;;;;;;;;;5010137;28;20061;-81
2024/01/21 08:37:05;;;;;;;7.70;6.15;;;;;;;;;;5027199;28;20058;-82
2024/01/21 08:39:31;;;;;;;8.98;6.22;;;;;;;;;;5028051;28;20060;-83
2024/01/21 08:41:57;;;;;;;9.15;5.72;;;;;;;;;;5009994;28;20045;-82
2024/01/21 08:44:23;;;;;;;8.18;5.95;;;;;;;;;;5010382;28;20724;-81
2024/01/21 08:46:49;;;;;;;7.88;5.40;;;;;;;;;;5010156;28;20124;-82
2024/01/21 08:49:15;;;;;;;7.10;4.85;;;;;;;;;;5009758;28;20191;-82
2024/01/21 08:51:41;;;;;;;9.05;6.00;;;;;;;;;;5027685;28;20045;-82
2024/01/21 08:54:07;;;;;;;11.18;6.97;;;;;;;;;;5027286;28;20049;-82
2024/01/21 08:56:35;;;;;;;8.68;6.20;;;;;;;;;;5027275;28;20068;-82
2024/01/21 08:59:01;;;;;;;7.93;6.32;;;;;;;;;;5026479;28;20060;-82
2024/01/21 09:01:27;;;;;;;10.48;9.40;;;;;;;;;;5009830;28;20388;-82
2024/01/21 09:03:53;;;;;;;8.63;6.43;;;;;;;;;;5009728;28;20084;-82
2024/01/21 09:06:19;;;;;;;9.32;5.85;;;;;;;;;;5009947;28;20506;-82
2024/01/21 09:08:45;;;;;;;9.60;7.47;;;;;;;;;;5027384;28;20129;-82
2024/01/21 09:11:12;;;;;;;10.48;6.30;;;;;;;;;;5032294;28;20395;-82
2024/01/21 09:13:38;;;;;;;7.10;5.68;;;;;;;;;;5013358;28;20119;-82
2024/01/21 09:16:05;;;;;;;7.50;5.60;;;;;;;;;;5031639;28;20137;-82
2024/01/21 09:18:31;;;;;;;10.57;5.75;;;;;;;;;;5031506;28;20079;-82
2024/01/21 09:20:58;;;;;;;8.70;5.93;;;;;;;;;;5031584;28;20057;-82
2024/01/21 09:23:25;;;;;;;7.63;5.80;;;;;;;;;;5031316;28;20057;-83
2024/01/21 09:25:51;;;;;;;8.20;6.35;;;;;;;;;;5010376;28;20165;-82
2024/01/21 09:28:18;;;;;;;6.93;5.13;;;;;;;;;;5040127;28;20124;-81
2024/01/21 09:30:44;;;;;;;7.88;6.07;;;;;;;;;;5012789;28;20049;-82
2024/01/21 09:33:10;;;;;;;7.88;5.70;;;;;;;;;;5013694;28;20395;-82
2024/01/21 09:35:36;;;;;;;9.15;6.72;;;;;;;;;;4997517;28;20526;-82
2024/01/21 09:38:02;;;;;;;7.40;5.82;;;;;;;;;;5012082;28;20045;-82
2024/01/21 09:40:28;;;;;;;8.27;5.85;;;;;;;;;;5013283;28;20049;-82
2024/01/21 09:42:54;;;;;;;8.20;6.25;;;;;;;;;;5039395;28;20499;-83
2024/01/21 09:45:22;;;;;;;9.70;7.25;;;;;;;;;;5015186;28;20040;-83
2024/01/21 09:47:48;;;;;;;10.32;6.80;;;;;;;;;;4995271;28;20114;-83
2024/01/21 09:50:15;;;;;;;8.60;6.32;;;;;;;;;;4998110;28;20348;-82
2024/01/21 09:52:41;;;;;;;10.95;8.70;;;;;;;;;;5030725;28;20445;-82
2024/01/21 09:55:07;;;;;;;9.43;6.63;;;;;;;;;;5013423;28;20415;-83
2024/01/21 09:57:36;;;;;;;11.18;5.80;;;;;;;;;;5030955;28;20037;-83
2024/01/21 10:00:03;;;;;;;8.23;6.25;;;;;;;;;;5012673;28;20054;-84
2024/01/21 10:02:30;;;;;;;10.57;6.28;;;;;;;;;;5012541;28;20057;-83
2024/01/21 10:04:56;;;;;;;11.18;7.90;;;;;;;;;;5012454;28;20562;-83
2024/01/21 10:07:23;;;;;;;8.60;6.30;;;;;;;;;;5012696;28;20061;-84
2024/01/21 10:09:57;;;;;;;7.95;5.80;;;;;;;;;;5015352;28;20052;-83
2024/01/21 10:12:27;;;;;;;9.02;6.80;;;;;;;;;;5012849;28;20051;-83
2024/01/21 10:14:53;;;;;;;9.75;6.45;;;;;;;;;;5012467;28;20045;-82
2024/01/21 10:17:26;;;;;;;11.60;7.45;;;;;;;;;;5000551;28;20128;-83
2024/01/21 10:19:55;;;;;;;9.38;5.72;;;;;;;;;;5016851;28;20045;-83
2024/01/21 10:22:23;;;;;;;8.45;6.22;;;;;;;;;;5006175;28;20535;-83
2024/01/21 10:24:49;;;;;;;7.95;5.82;;;;;;;;;;5008136;28;20576;-83
2024/01/21 10:27:18;;;;;;;11.15;7.72;;;;;;;;;;5030153;28;20042;-83
2024/01/21 10:29:45;;;;;;;8.75;6.47;;;;;;;;;;5029844;28;20380;-84
2024/01/21 10:32:12;;;;;;;9.88;6.53;;;;;;;;;;5012335;28;20049;-83
2024/01/21 10:34:38;;;;;;;8.45;6.10;;;;;;;;;;5012414;28;20833;-84
2024/01/21 10:37:04;;;;;;;8.27;6.47;;;;;;;;;;5011715;28;20053;-84
2024/01/21 10:39:34;;;;;;;7.72;5.97;;;;;;;;;;5011127;28;20048;-83
2024/01/21 10:42:01;;;;;;;8.02;5.97;;;;;;;;;;5022926;28;20490;-81
2024/01/21 10:44:28;;;;;;;8.98;6.00;;;;;;;;;;5032524;28;20110;-82
2024/01/21 10:46:55;;;;;;;10.60;6.63;;;;;;;;;;5031847;28;20045;-82
2024/01/21 10:49:21;;;;;;;8.25;6.18;;;;;;;;;;5031381;28;20053;-82
2024/01/21 10:51:47;;;;;;;8.75;6.07;;;;;;;;;;5042142;28;20399;-82
2024/01/21 10:54:14;;;;;;;7.82;5.85;;;;;;;;;;5011308;28;20049;-82
2024/01/21 10:56:40;;;;;;;9.45;6.30;;;;;;;;;;5028615;28;20080;-81
2024/01/21 10:59:06;;;;;;;8.75;6.35;;;;;;;;;;5017310;28;20045;-82
2024/01/21 11:01:33;;;;;;;9.43;6.35;;;;;;;;;;5028933;28;20045;-81
2024/01/21 11:04:05;;;;;;;10.77;6.70;;;;;;;;;;5011129;28;20123;-82
2024/01/21 11:06:32;;;;;;;10.32;6.90;;;;;;;;;;5010425;28;20049;-82
2024/01/21 11:09:00;;;;;;;9.48;6.82;;;;;;;;;;5010977;28;20084;-85
2024/01/21 11:11:26;;;;;;;8.00;5.85;;;;;;;;;;5011478;28;20522;-83
2024/01/21 11:13:52;;;;;;;9.07;6.63;;;;;;;;;;5039159;28;20115;-84
2024/01/21 11:16:30;;;;;;;10.80;5.82;;;;;;;;;;5030277;28;20565;-83
2024/01/21 11:19:03;;;;;;;7.55;5.78;;;;;;;;;;5018725;28;20045;-82
2024/01/21 11:21:33;;;;;;;7.95;5.63;;;;;;;;;;5011048;28;20046;-82
2024/01/21 11:24:03;;;;;;;11.82;7.68;;;;;;;;;;5010383;28;20041;-84
2024/01/21 11:26:41;;;;;;;7.45;5.95;;;;;;;;;;5028951;28;20045;-85
2024/01/21 11:29:40;;;;;;;13.65;8.20;;;;;;;;;;5010995;28;20080;-84
2024/01/21 11:32:08;;;;;;;8.63;6.00;;;;;;;;;;4984277;28;20058;-83
2024/01/21 11:34:42;;;;;;;8.93;6.35;;;;;;;;;;5030738;28;20053;-84
2024/01/21 11:37:09;;;;;;;9.93;6.40;;;;;;;;;;5027897;28;20391;-84
2024/01/21 11:39:35;;;;;;;9.20;6.82;;;;;;;;;;5029220;28;20051;-84
2024/01/21 11:42:03;;;;;;;8.65;5.97;;;;;;;;;;5009847;28;20056;-84
2024/01/21 11:44:30;;;;;;;9.82;8.45;;;;;;;;;;5028288;28;20041;-82
2024/01/21 11:46:57;;;;;;;8.52;6.25;;;;;;;;;;5010671;28;20067;-82
2024/01/21 11:49:24;;;;;;;8.32;6.60;;;;;;;;;;5031592;28;20171;-83
2024/01/21 11:51:51;;;;;;;9.20;6.25;;;;;;;;;;5010842;28;20060;-84
2024/01/21 11:54:19;;;;;;;8.88;6.22;;;;;;;;;;5010425;28;20089;-83
2024/01/21 11:56:46;;;;;;;8.80;6.43;;;;;;;;;;5010917;28;20054;-84
2024/01/21 11:59:13;;;;;;;8.43;6.65;;;;;;;;;;5010653;28;20504;-84
2024/01/21 12:01:39;;;;;;;7.28;6.15;;;;;;;;;;5010420;28;20053;-84
2024/01/21 12:04:07;;;;;;;9.65;7.05;;;;;;;;;;5028753;28;20119;-84
2024/01/21 12:06:35;;;;;;;7.88;6.43;;;;;;;;;;4993885;28;20053;-83
2024/01/21 12:09:01;;;;;;;12.98;6.43;;;;;;;;;;4993455;28;20041;-85
2024/01/21 12:11:27;;;;;;;13.50;6.63;;;;;;;;;;5010422;28;20136;-84
2024/01/21 12:13:55;;;;;;;8.70;6.55;;;;;;;;;;5010693;28;20384;-84
2024/01/21 12:16:21;;;;;;;9.90;7.25;;;;;;;;;;5010230;28;20064;-84
2024/01/21 12:18:50;;;;;;;10.90;7.30;;;;;;;;;;5028247;28;20042;-83
2024/01/21 12:21:17;;;;;;;10.35;6.93;;;;;;;;;;5009850;28;20096;-84
2024/01/21 12:23:44;;;;;;;9.77;7.68;;;;;;;;;;5031931;28;20079;-84
2024/01/21 12:26:15;;;;;;;8.85;6.80;;;;;;;;;;4996681;28;20521;-83
2024/01/21 12:29:02;;;;;;;8.98;6.78;;;;;;;;;;5028034;28;20042;-82
2024/01/21 12:31:39;;;;;;;11.25;7.07;;;;;;;;;;5010165;28;20083;-82
2024/01/21 12:34:06;;;;;;;10.30;6.70;;;;;;;;;;5009522;28;20045;-83
2024/01/21 12:36:33;;;;;;;11.57;7.30;;;;;;;;;;4993123;28;20447;-84
2024/01/21 12:39:00;;;;;;;12.27;7.60;;;;;;;;;;4994769;28;20398;-82
2024/01/21 12:41:27;;;;;;;9.68;7.18;;;;;;;;;;5029028;28;20044;-82
2024/01/21 12:43:53;;;;;;;10.95;9.38;;;;;;;;;;5010582;28;20814;-83
2024/01/21 12:46:22;;;;;;;9.90;7.95;;;;;;;;;;5010118;28;20061;-83
2024/01/21 12:48:49;;;;;;;9.98;7.15;;;;;;;;;;5010757;28;20183;-82
2024/01/21 12:51:19;;;;;;;10.63;7.22;;;;;;;;;;5009942;28;20236;-83
2024/01/21 12:53:46;;;;;;;8.18;6.47;;;;;;;;;;4992890;28;20053;-81
2024/01/21 12:56:13;;;;;;;9.32;6.93;;;;;;;;;;5016687;28;20049;-83
2024/01/21 12:58:41;;;;;;;10.82;6.85;;;;;;;;;;5010725;28;20064;-82
2024/01/21 13:01:08;;;;;;;9.73;7.53;;;;;;;;;;4993227;28;20487;-81
2024/01/21 13:03:34;;;;;;;10.25;7.40;;;;;;;;;;5009872;28;20060;-82
2024/01/21 13:06:02;;;;;;;10.50;7.35;;;;;;;;;;5026728;28;20041;-81
2024/01/21 13:08:29;;;;;;;10.23;7.30;;;;;;;;;;5027937;28;20157;-82
2024/01/21 13:10:55;;;;;;;10.43;7.72;;;;;;;;;;4993873;28;20041;-81
2024/01/21 13:13:21;;;;;;;11.50;7.18;;;;;;;;;;5009384;28;20046;-82
2024/01/21 13:15:48;;;;;;;11.30;7.78;;;;;;;;;;5046365;28;20049;-80
2024/01/21 13:18:14;;;;;;;9.52;7.43;;;;;;;;;;5031862;28;20121;-81
2024/01/21 13:20:40;;;;;;;10.27;7.90;;;;;;;;;;5020804;28;20049;-82
2024/01/21 13:23:06;;;;;;;9.25;7.68;;;;;;;;;;5026164;28;20045;-81
2024/01/21 13:25:34;;;;;;;12.07;7.25;;;;;;;;;;5027540;28;20119;-81
2024/01/21 13:28:13;;;;;;;11.50;7.05;;;;;;;;;;4991914;28;20395;-81
2024/01/21 13:30:43;;;;;;;11.55;7.90;;;;;;;;;;5026047;28;20235;-81
2024/01/21 13:33:09;;;;;;;12.27;7.65;;;;;;;;;;5043982;28;20045;-81
2024/01/21 13:35:35;;;;;;;13.90;8.02;;;;;;;;;;4993271;28;20507;-81
2024/01/21 13:38:01;;;;;;;11.88;7.03;;;;;;;;;;5026342;28;20045;-80
2024/01/21 13:40:27;;;;;;;12.80;7.93;;;;;;;;;;4993549;28;20049;-81
2024/01/21 13:42:57;;;;;;;12.77;8.52;;;;;;;;;;5026699;28;20075;-80
2024/01/21 13:45:23;;;;;;;12.90;9.25;;;;;;;;;;5025564;28;20045;-80
2024/01/21 13:47:49;;;;;;;10.35;7.72;;;;;;;;;;5026841;28;20041;-80
2024/01/21 13:50:15;;;;;;;14.18;8.57;;;;;;;;;;4999784;28;20111;-81
2024/01/21 13:52:41;;;;;;;13.25;7.78;;;;;;;;;;5025160;28;20045;-80
2024/01/21 13:55:08;;;;;;;10.52;7.05;;;;;;;;;;5010113;28;20049;-80
2024/01/21 13:57:37;;;;;;;10.80;7.70;;;;;;;;;;5024244;28;20116;-79
2024/01/21 14:00:03;;;;;;;10.82;7.10;;;;;;;;;;5025639;28;20407;-80
2024/01/21 14:02:29;;;;;;;13.52;7.80;;;;;;;;;;5050538;28;20079;-80
2024/01/21 14:04:55;;;;;;;11.65;7.47;;;;;;;;;;5050469;28;20061;-81
2024/01/21 14:07:22;;;;;;;15.80;9.82;;;;;;;;;;5050098;28;20152;-80
2024/01/21 14:09:48;;;;;;;12.00;8.13;;;;;;;;;;5050002;28;20426;-81
2024/01/21 14:12:15;;;;;;;12.13;8.20;;;;;;;;;;5032728;28;20099;-81
2024/01/21 14:14:41;;;;;;;9.90;7.00;;;;;;;;;;5011356;28;20053;-80
2024/01/21 14:17:07;;;;;;;16.13;8.18;;;;;;;;;;5032675;28;20041;-81
2024/01/21 14:19:33;;;;;;;13.40;7.35;;;;;;;;;;5025913;28;20085;-80
2024/01/21 14:22:00;;;;;;;14.57;8.73;;;;;;;;;;5011023;28;20087;-81
2024/01/21 14:24:27;;;;;;;11.57;7.38;;;;;;;;;;5030514;28;20045;-81
2024/01/21 14:26:53;;;;;;;9.45;7.43;;;;;;;;;;5012567;28;20152;-81
2024/01/21 14:29:26;;;;;;;11.77;7.60;;;;;;;;;;5038711;28;20073;-81
2024/01/21 14:31:52;;;;;;;11.88;7.40;;;;;;;;;;5035416;28;20045;-81
2024/01/21 14:34:18;;;;;;;13.35;7.97;;;;;;;;;;5027482;28;20049;-80